sensor_id;sensor_type;location;lat;lon;timestamp;P1;durP1;ratioP1;P2;durP2;ratioP2
27957;SDS011;15295;42.658;23.374;2023-02-21T00:02:00;21.65;;;8.10;;
27957;SDS011;15295;42.658;23.374;2023-02-21T00:04:44;16.08;;;7.00;;
27957;SDS011;15295;42.658;23.374;2023-02-21T00:07:30;16.87;;;7.40;;
27957;SDS011;15295;42.658;23.374;2023-02-21T00:10:16;12.45;;;6.88;;
27957;SDS011;15295;42.658;23.374;2023-02-21T00:12:59;15.50;;;7.32;;
27957;SDS011;15295;42.658;23.374;2023-02-21T00:15:46;15.77;;;6.38;;
27957;SDS011;15295;42.658;23.374;2023-02-21T00:18:34;13.30;;;6.20;;
27957;SDS011;15295;42.658;23.374;2023-02-21T00:21:18;14.65;;;6.38;;
27957;SDS011;15295;42.658;23.374;2023-02-21T00:24:02;18.40;;;6.57;;
27957;SDS011;15295;42.658;23.374;2023-02-21T00:26:47;12.38;;;6.43;;
27957;SDS011;15295;42.658;23.374;2023-02-21T00:29:31;13.57;;;5.53;;
27957;SDS011;15295;42.658;23.374;2023-02-21T00:32:14;14.80;;;5.75;;
27957;SDS011;15295;42.658;23.374;2023-02-21T00:34:59;7.18;;;3.95;;
27957;SDS011;15295;42.658;23.374;2023-02-21T00:37:43;11.68;;;5.45;;
27957;SDS011;15295;42.658;23.374;2023-02-21T00:40:29;13.02;;;4.78;;
27957;SDS011;15295;42.658;23.374;2023-02-21T00:43:14;10.45;;;4.63;;
27957;SDS011;15295;42.658;23.374;2023-02-21T00:45:59;10.45;;;4.53;;
27957;SDS011;15295;42.658;23.374;2023-02-21T00:48:43;14.63;;;4.95;;
27957;SDS011;15295;42.658;23.374;2023-02-21T00:51:27;11.40;;;4.60;;
27957;SDS011;15295;42.658;23.374;2023-02-21T00:54:11;10.50;;;5.05;;
27957;SDS011;15295;42.658;23.374;2023-02-21T00:56:55;10.73;;;5.10;;
27957;SDS011;15295;42.658;23.374;2023-02-21T00:59:40;10.73;;;4.75;;
27957;SDS011;15295;42.658;23.374;2023-02-21T01:05:09;10.73;;;5.00;;
27957;SDS011;15295;42.658;23.374;2023-02-21T01:07:53;8.23;;;4.65;;
27957;SDS011;15295;42.658;23.374;2023-02-21T01:10:37;11.95;;;4.50;;
27957;SDS011;15295;42.658;23.374;2023-02-21T01:13:21;12.15;;;5.47;;
27957;SDS011;15295;42.658;23.374;2023-02-21T01:16:05;12.50;;;5.10;;
27957;SDS011;15295;42.658;23.374;2023-02-21T01:18:50;10.73;;;5.20;;
27957;SDS011;15295;42.658;23.374;2023-02-21T01:21:34;9.75;;;4.68;;
27957;SDS011;15295;42.658;23.374;2023-02-21T01:24:18;8.88;;;5.10;;
27957;SDS011;15295;42.658;23.374;2023-02-21T01:27:02;12.38;;;4.95;;
27957;SDS011;15295;42.658;23.374;2023-02-21T01:29:46;10.70;;;5.55;;
27957;SDS011;15295;42.658;23.374;2023-02-21T01:32:31;9.65;;;4.95;;
27957;SDS011;15295;42.658;23.374;2023-02-21T01:35:15;12.33;;;5.30;;
27957;SDS011;15295;42.658;23.374;2023-02-21T01:37:59;9.07;;;4.75;;
27957;SDS011;15295;42.658;23.374;2023-02-21T01:40:44;9.57;;;4.97;;
27957;SDS011;15295;42.658;23.374;2023-02-21T01:43:27;9.30;;;4.10;;
27957;SDS011;15295;42.658;23.374;2023-02-21T01:46:13;8.60;;;4.30;;
27957;SDS011;15295;42.658;23.374;2023-02-21T01:49:00;8.60;;;4.60;;
27957;SDS011;15295;42.658;23.374;2023-02-21T01:51:48;10.93;;;4.18;;
27957;SDS011;15295;42.658;23.374;2023-02-21T01:54:35;9.25;;;4.05;;
27957;SDS011;15295;42.658;23.374;2023-02-21T01:57:23;8.00;;;4.30;;
27957;SDS011;15295;42.658;23.374;2023-02-21T02:00:09;11.05;;;4.63;;
27957;SDS011;15295;42.658;23.374;2023-02-21T02:02:57;8.35;;;4.55;;
27957;SDS011;15295;42.658;23.374;2023-02-21T02:05:45;9.68;;;4.75;;
27957;SDS011;15295;42.658;23.374;2023-02-21T02:08:33;9.45;;;4.07;;
27957;SDS011;15295;42.658;23.374;2023-02-21T02:15:02;10.20;;;3.72;;
27957;SDS011;15295;42.658;23.374;2023-02-21T02:17:30;8.63;;;4.03;;
27957;SDS011;15295;42.658;23.374;2023-02-21T02:30:45;7.80;;;3.45;;
27957;SDS011;15295;42.658;23.374;2023-02-21T02:36:14;7.97;;;3.92;;
27957;SDS011;15295;42.658;23.374;2023-02-21T02:43:56;7.70;;;3.35;;
27957;SDS011;15295;42.658;23.374;2023-02-21T02:46:28;8.35;;;3.72;;
27957;SDS011;15295;42.658;23.374;2023-02-21T02:49:02;9.88;;;4.35;;
27957;SDS011;15295;42.658;23.374;2023-02-21T02:51:32;11.37;;;4.50;;
27957;SDS011;15295;42.658;23.374;2023-02-21T02:53:58;10.68;;;4.20;;
27957;SDS011;15295;42.658;23.374;2023-02-21T02:56:24;10.05;;;4.97;;
27957;SDS011;15295;42.658;23.374;2023-02-21T02:59:10;8.63;;;4.15;;
27957;SDS011;15295;42.658;23.374;2023-02-21T03:09:45;6.13;;;3.60;;
27957;SDS011;15295;42.658;23.374;2023-02-21T03:18:02;8.52;;;3.22;;
27957;SDS011;15295;42.658;23.374;2023-02-21T03:20:56;6.30;;;3.30;;
27957;SDS011;15295;42.658;23.374;2023-02-21T03:23:24;6.28;;;3.42;;
27957;SDS011;15295;42.658;23.374;2023-02-21T03:25:54;9.75;;;3.80;;
27957;SDS011;15295;42.658;23.374;2023-02-21T03:28:23;8.73;;;3.60;;
27957;SDS011;15295;42.658;23.374;2023-02-21T03:30:50;7.10;;;3.60;;
27957;SDS011;15295;42.658;23.374;2023-02-21T03:33:18;5.57;;;3.10;;
27957;SDS011;15295;42.658;23.374;2023-02-21T03:35:44;5.95;;;3.08;;
27957;SDS011;15295;42.658;23.374;2023-02-21T03:38:09;7.25;;;3.78;;
27957;SDS011;15295;42.658;23.374;2023-02-21T03:40:36;6.55;;;3.97;;
27957;SDS011;15295;42.658;23.374;2023-02-21T03:43:02;8.60;;;3.30;;
27957;SDS011;15295;42.658;23.374;2023-02-21T03:45:31;5.72;;;3.42;;
27957;SDS011;15295;42.658;23.374;2023-02-21T03:47:56;5.85;;;3.40;;
27957;SDS011;15295;42.658;23.374;2023-02-21T03:50:22;7.28;;;3.55;;
27957;SDS011;15295;42.658;23.374;2023-02-21T03:52:47;13.20;;;4.18;;
27957;SDS011;15295;42.658;23.374;2023-02-21T03:55:13;7.20;;;3.35;;
27957;SDS011;15295;42.658;23.374;2023-02-21T03:57:38;6.97;;;3.50;;
27957;SDS011;15295;42.658;23.374;2023-02-21T04:00:04;6.72;;;3.83;;
27957;SDS011;15295;42.658;23.374;2023-02-21T04:02:30;9.05;;;3.80;;
27957;SDS011;15295;42.658;23.374;2023-02-21T04:04:55;9.20;;;3.85;;
27957;SDS011;15295;42.658;23.374;2023-02-21T04:07:21;10.40;;;3.67;;
27957;SDS011;15295;42.658;23.374;2023-02-21T04:09:47;6.55;;;3.55;;
27957;SDS011;15295;42.658;23.374;2023-02-21T04:12:14;8.57;;;3.50;;
27957;SDS011;15295;42.658;23.374;2023-02-21T04:14:39;8.48;;;3.88;;
27957;SDS011;15295;42.658;23.374;2023-02-21T04:17:06;6.78;;;3.28;;
27957;SDS011;15295;42.658;23.374;2023-02-21T04:19:32;6.50;;;3.20;;
27957;SDS011;15295;42.658;23.374;2023-02-21T04:21:58;6.45;;;3.67;;
27957;SDS011;15295;42.658;23.374;2023-02-21T04:24:24;6.40;;;3.40;;
27957;SDS011;15295;42.658;23.374;2023-02-21T04:26:50;7.57;;;3.33;;
27957;SDS011;15295;42.658;23.374;2023-02-21T04:29:16;8.98;;;4.38;;
27957;SDS011;15295;42.658;23.374;2023-02-21T04:31:41;8.07;;;3.63;;
27957;SDS011;15295;42.658;23.374;2023-02-21T04:34:08;9.13;;;4.28;;
27957;SDS011;15295;42.658;23.374;2023-02-21T04:36:33;10.70;;;4.03;;
27957;SDS011;15295;42.658;23.374;2023-02-21T04:39:01;7.30;;;3.70;;
27957;SDS011;15295;42.658;23.374;2023-02-21T04:41:26;8.13;;;4.13;;
27957;SDS011;15295;42.658;23.374;2023-02-21T04:43:52;7.95;;;3.88;;
27957;SDS011;15295;42.658;23.374;2023-02-21T04:46:23;6.80;;;3.90;;
27957;SDS011;15295;42.658;23.374;2023-02-21T04:48:49;9.73;;;3.80;;
27957;SDS011;15295;42.658;23.374;2023-02-21T04:51:18;7.07;;;4.22;;
27957;SDS011;15295;42.658;23.374;2023-02-21T04:53:47;11.20;;;3.78;;
27957;SDS011;15295;42.658;23.374;2023-02-21T04:56:14;6.68;;;3.92;;
27957;SDS011;15295;42.658;23.374;2023-02-21T04:58:42;19.02;;;4.13;;
27957;SDS011;15295;42.658;23.374;2023-02-21T05:01:09;8.25;;;4.57;;
27957;SDS011;15295;42.658;23.374;2023-02-21T05:03:36;11.77;;;4.47;;
27957;SDS011;15295;42.658;23.374;2023-02-21T05:06:01;10.57;;;4.20;;
27957;SDS011;15295;42.658;23.374;2023-02-21T05:08:27;16.50;;;6.63;;
27957;SDS011;15295;42.658;23.374;2023-02-21T05:10:52;11.18;;;4.63;;
27957;SDS011;15295;42.658;23.374;2023-02-21T05:13:19;8.32;;;4.43;;
27957;SDS011;15295;42.658;23.374;2023-02-21T05:15:49;13.60;;;4.90;;
27957;SDS011;15295;42.658;23.374;2023-02-21T05:21:25;14.32;;;5.43;;
27957;SDS011;15295;42.658;23.374;2023-02-21T05:26:44;13.15;;;5.40;;
27957;SDS011;15295;42.658;23.374;2023-02-21T05:29:10;11.07;;;4.60;;
27957;SDS011;15295;42.658;23.374;2023-02-21T05:31:53;6.50;;;3.78;;
27957;SDS011;15295;42.658;23.374;2023-02-21T05:34:19;12.20;;;3.70;;
27957;SDS011;15295;42.658;23.374;2023-02-21T05:36:45;9.50;;;3.70;;
27957;SDS011;15295;42.658;23.374;2023-02-21T05:39:16;8.15;;;3.90;;
27957;SDS011;15295;42.658;23.374;2023-02-21T05:41:47;7.75;;;3.65;;
27957;SDS011;15295;42.658;23.374;2023-02-21T05:44:15;11.65;;;4.55;;
27957;SDS011;15295;42.658;23.374;2023-02-21T05:46:41;11.50;;;4.57;;
27957;SDS011;15295;42.658;23.374;2023-02-21T05:49:09;15.43;;;3.95;;
27957;SDS011;15295;42.658;23.374;2023-02-21T05:51:39;12.25;;;4.45;;
27957;SDS011;15295;42.658;23.374;2023-02-21T05:54:08;10.90;;;5.10;;
27957;SDS011;15295;42.658;23.374;2023-02-21T05:56:40;12.48;;;5.15;;
27957;SDS011;15295;42.658;23.374;2023-02-21T05:59:07;10.82;;;5.70;;
27957;SDS011;15295;42.658;23.374;2023-02-21T06:01:33;25.10;;;9.40;;
27957;SDS011;15295;42.658;23.374;2023-02-21T06:04:15;18.98;;;8.60;;
27957;SDS011;15295;42.658;23.374;2023-02-21T06:06:49;18.65;;;9.35;;
27957;SDS011;15295;42.658;23.374;2023-02-21T06:09:21;17.58;;;6.97;;
27957;SDS011;15295;42.658;23.374;2023-02-21T06:11:54;31.08;;;10.75;;
27957;SDS011;15295;42.658;23.374;2023-02-21T06:14:40;20.80;;;9.05;;
27957;SDS011;15295;42.658;23.374;2023-02-21T06:20:24;17.17;;;7.47;;
27957;SDS011;15295;42.658;23.374;2023-02-21T06:23:01;22.27;;;7.65;;
27957;SDS011;15295;42.658;23.374;2023-02-21T06:25:39;15.55;;;7.03;;
27957;SDS011;15295;42.658;23.374;2023-02-21T06:28:05;20.77;;;8.57;;
27957;SDS011;15295;42.658;23.374;2023-02-21T06:31:25;31.33;;;12.43;;
27957;SDS011;15295;42.658;23.374;2023-02-21T06:36:25;24.33;;;9.73;;
27957;SDS011;15295;42.658;23.374;2023-02-21T06:39:00;22.98;;;9.80;;
27957;SDS011;15295;42.658;23.374;2023-02-21T06:41:28;33.67;;;9.90;;
27957;SDS011;15295;42.658;23.374;2023-02-21T06:44:28;20.52;;;7.82;;
27957;SDS011;15295;42.658;23.374;2023-02-21T06:46:54;17.92;;;7.15;;
27957;SDS011;15295;42.658;23.374;2023-02-21T07:03:22;17.10;;;6.30;;
27957;SDS011;15295;42.658;23.374;2023-02-21T07:05:48;15.93;;;6.28;;
27957;SDS011;15295;42.658;23.374;2023-02-21T07:08:13;17.27;;;6.55;;
27957;SDS011;15295;42.658;23.374;2023-02-21T07:10:39;17.80;;;6.38;;
27957;SDS011;15295;42.658;23.374;2023-02-21T07:13:05;21.23;;;6.22;;
27957;SDS011;15295;42.658;23.374;2023-02-21T07:15:32;12.98;;;5.50;;
27957;SDS011;15295;42.658;23.374;2023-02-21T07:17:57;17.20;;;5.82;;
27957;SDS011;15295;42.658;23.374;2023-02-21T07:20:23;14.82;;;6.13;;
27957;SDS011;15295;42.658;23.374;2023-02-21T07:22:48;21.60;;;8.63;;
27957;SDS011;15295;42.658;23.374;2023-02-21T07:25:14;21.33;;;7.38;;
27957;SDS011;15295;42.658;23.374;2023-02-21T07:27:41;21.17;;;7.03;;
27957;SDS011;15295;42.658;23.374;2023-02-21T07:30:08;17.15;;;6.13;;
27957;SDS011;15295;42.658;23.374;2023-02-21T07:32:35;24.13;;;7.38;;
27957;SDS011;15295;42.658;23.374;2023-02-21T07:35:04;18.00;;;6.85;;
27957;SDS011;15295;42.658;23.374;2023-02-21T07:37:31;21.67;;;6.70;;
27957;SDS011;15295;42.658;23.374;2023-02-21T07:39:56;23.52;;;11.40;;
27957;SDS011;15295;42.658;23.374;2023-02-21T07:42:22;24.60;;;7.03;;
27957;SDS011;15295;42.658;23.374;2023-02-21T07:44:47;15.93;;;7.57;;
27957;SDS011;15295;42.658;23.374;2023-02-21T07:47:13;26.27;;;7.47;;
27957;SDS011;15295;42.658;23.374;2023-02-21T07:49:39;17.77;;;8.32;;
27957;SDS011;15295;42.658;23.374;2023-02-21T07:52:05;17.83;;;7.90;;
27957;SDS011;15295;42.658;23.374;2023-02-21T07:54:31;17.58;;;7.47;;
27957;SDS011;15295;42.658;23.374;2023-02-21T07:56:58;18.83;;;8.18;;
27957;SDS011;15295;42.658;23.374;2023-02-21T07:59:24;24.35;;;8.20;;
27957;SDS011;15295;42.658;23.374;2023-02-21T08:01:49;22.30;;;7.70;;
27957;SDS011;15295;42.658;23.374;2023-02-21T08:04:14;29.70;;;11.20;;
27957;SDS011;15295;42.658;23.374;2023-02-21T08:06:45;21.92;;;8.32;;
27957;SDS011;15295;42.658;23.374;2023-02-21T08:09:10;22.33;;;8.18;;
27957;SDS011;15295;42.658;23.374;2023-02-21T08:11:38;24.15;;;10.90;;
27957;SDS011;15295;42.658;23.374;2023-02-21T08:14:05;26.38;;;8.25;;
27957;SDS011;15295;42.658;23.374;2023-02-21T08:16:31;27.60;;;10.27;;
27957;SDS011;15295;42.658;23.374;2023-02-21T08:18:56;32.20;;;13.02;;
27957;SDS011;15295;42.658;23.374;2023-02-21T08:21:22;28.67;;;11.32;;
27957;SDS011;15295;42.658;23.374;2023-02-21T08:23:50;30.15;;;11.20;;
27957;SDS011;15295;42.658;23.374;2023-02-21T08:26:16;27.52;;;10.80;;
27957;SDS011;15295;42.658;23.374;2023-02-21T08:28:42;22.65;;;10.80;;
27957;SDS011;15295;42.658;23.374;2023-02-21T08:31:07;25.55;;;11.25;;
27957;SDS011;15295;42.658;23.374;2023-02-21T08:33:32;22.55;;;9.48;;
27957;SDS011;15295;42.658;23.374;2023-02-21T08:35:58;22.92;;;8.57;;
27957;SDS011;15295;42.658;23.374;2023-02-21T08:38:23;18.25;;;7.20;;
27957;SDS011;15295;42.658;23.374;2023-02-21T08:40:48;20.13;;;7.50;;
27957;SDS011;15295;42.658;23.374;2023-02-21T08:43:15;21.08;;;7.88;;
27957;SDS011;15295;42.658;23.374;2023-02-21T08:45:41;27.88;;;10.70;;
27957;SDS011;15295;42.658;23.374;2023-02-21T08:48:06;29.00;;;10.55;;
27957;SDS011;15295;42.658;23.374;2023-02-21T08:50:32;26.77;;;11.40;;
27957;SDS011;15295;42.658;23.374;2023-02-21T08:52:57;24.65;;;9.55;;
27957;SDS011;15295;42.658;23.374;2023-02-21T08:55:23;14.30;;;7.18;;
27957;SDS011;15295;42.658;23.374;2023-02-21T08:57:51;18.13;;;6.90;;
27957;SDS011;15295;42.658;23.374;2023-02-21T09:00:19;22.65;;;7.10;;
27957;SDS011;15295;42.658;23.374;2023-02-21T09:02:48;17.80;;;7.53;;
27957;SDS011;15295;42.658;23.374;2023-02-21T09:05:19;21.23;;;6.68;;
27957;SDS011;15295;42.658;23.374;2023-02-21T09:07:51;17.17;;;6.85;;
27957;SDS011;15295;42.658;23.374;2023-02-21T09:10:23;18.23;;;6.18;;
27957;SDS011;15295;42.658;23.374;2023-02-21T09:12:55;21.38;;;6.47;;
27957;SDS011;15295;42.658;23.374;2023-02-21T09:15:21;16.77;;;6.20;;
27957;SDS011;15295;42.658;23.374;2023-02-21T09:17:46;21.25;;;7.07;;
27957;SDS011;15295;42.658;23.374;2023-02-21T09:20:14;22.73;;;6.68;;
27957;SDS011;15295;42.658;23.374;2023-02-21T09:22:45;25.55;;;6.65;;
27957;SDS011;15295;42.658;23.374;2023-02-21T09:25:11;28.20;;;6.85;;
27957;SDS011;15295;42.658;23.374;2023-02-21T09:27:38;16.20;;;5.93;;
27957;SDS011;15295;42.658;23.374;2023-02-21T09:30:09;16.00;;;6.07;;
27957;SDS011;15295;42.658;23.374;2023-02-21T09:32:37;18.00;;;5.68;;
27957;SDS011;15295;42.658;23.374;2023-02-21T09:35:03;18.33;;;6.50;;
27957;SDS011;15295;42.658;23.374;2023-02-21T09:37:29;17.13;;;6.28;;
27957;SDS011;15295;42.658;23.374;2023-02-21T09:39:55;14.00;;;5.40;;
27957;SDS011;15295;42.658;23.374;2023-02-21T09:42:21;14.60;;;6.00;;
27957;SDS011;15295;42.658;23.374;2023-02-21T09:44:52;15.52;;;5.43;;
27957;SDS011;15295;42.658;23.374;2023-02-21T09:47:28;15.70;;;5.50;;
27957;SDS011;15295;42.658;23.374;2023-02-21T09:50:00;13.73;;;4.97;;
27957;SDS011;15295;42.658;23.374;2023-02-21T09:57:51;17.90;;;6.28;;
27957;SDS011;15295;42.658;23.374;2023-02-21T10:05:50;10.95;;;4.78;;
27957;SDS011;15295;42.658;23.374;2023-02-21T10:08:49;14.80;;;4.88;;
27957;SDS011;15295;42.658;23.374;2023-02-21T10:14:39;10.18;;;4.78;;
27957;SDS011;15295;42.658;23.374;2023-02-21T10:20:21;11.15;;;4.93;;
27957;SDS011;15295;42.658;23.374;2023-02-21T10:22:56;14.52;;;5.43;;
27957;SDS011;15295;42.658;23.374;2023-02-21T10:25:26;12.85;;;4.95;;
27957;SDS011;15295;42.658;23.374;2023-02-21T10:27:54;12.98;;;4.57;;
27957;SDS011;15295;42.658;23.374;2023-02-21T10:30:28;12.82;;;5.47;;
27957;SDS011;15295;42.658;23.374;2023-02-21T10:32:59;18.02;;;5.35;;
27957;SDS011;15295;42.658;23.374;2023-02-21T10:35:32;13.15;;;5.00;;
27957;SDS011;15295;42.658;23.374;2023-02-21T10:37:58;15.75;;;6.03;;
27957;SDS011;15295;42.658;23.374;2023-02-21T10:40:37;14.70;;;5.68;;
27957;SDS011;15295;42.658;23.374;2023-02-21T10:43:10;14.55;;;4.82;;
27957;SDS011;15295;42.658;23.374;2023-02-21T10:45:39;16.80;;;5.65;;
27957;SDS011;15295;42.658;23.374;2023-02-21T10:48:09;9.82;;;4.97;;
27957;SDS011;15295;42.658;23.374;2023-02-21T10:51:03;10.18;;;4.75;;
27957;SDS011;15295;42.658;23.374;2023-02-21T10:53:33;10.98;;;4.63;;
27957;SDS011;15295;42.658;23.374;2023-02-21T11:01:43;14.10;;;5.07;;
27957;SDS011;15295;42.658;23.374;2023-02-21T11:06:45;10.27;;;4.13;;
27957;SDS011;15295;42.658;23.374;2023-02-21T11:19:48;5.68;;;2.50;;
27957;SDS011;15295;42.658;23.374;2023-02-21T11:22:25;3.60;;;1.88;;
27957;SDS011;15295;42.658;23.374;2023-02-21T11:30:26;3.55;;;1.50;;
27957;SDS011;15295;42.658;23.374;2023-02-21T11:32:54;2.95;;;1.75;;
27957;SDS011;15295;42.658;23.374;2023-02-21T11:35:23;4.82;;;1.77;;
27957;SDS011;15295;42.658;23.374;2023-02-21T11:38:02;6.00;;;2.17;;
27957;SDS011;15295;42.658;23.374;2023-02-21T11:40:42;3.92;;;2.72;;
27957;SDS011;15295;42.658;23.374;2023-02-21T11:43:27;4.20;;;1.95;;
27957;SDS011;15295;42.658;23.374;2023-02-21T11:48:48;5.72;;;2.50;;
27957;SDS011;15295;42.658;23.374;2023-02-21T11:51:25;6.18;;;2.00;;
27957;SDS011;15295;42.658;23.374;2023-02-21T11:54:10;4.05;;;2.53;;
27957;SDS011;15295;42.658;23.374;2023-02-21T12:12:42;3.88;;;1.80;;
27957;SDS011;15295;42.658;23.374;2023-02-21T12:17:45;3.95;;;1.80;;
27957;SDS011;15295;42.658;23.374;2023-02-21T12:28:35;4.40;;;2.33;;
27957;SDS011;15295;42.658;23.374;2023-02-21T12:31:16;5.05;;;1.90;;
27957;SDS011;15295;42.658;23.374;2023-02-21T12:37:10;2.00;;;1.50;;
27957;SDS011;15295;42.658;23.374;2023-02-21T12:42:40;3.88;;;2.10;;
27957;SDS011;15295;42.658;23.374;2023-02-21T12:45:20;5.55;;;1.70;;
27957;SDS011;15295;42.658;23.374;2023-02-21T12:50:53;3.50;;;2.00;;
27957;SDS011;15295;42.658;23.374;2023-02-21T12:56:05;4.60;;;2.22;;
27957;SDS011;15295;42.658;23.374;2023-02-21T13:30:27;6.07;;;1.80;;
27957;SDS011;15295;42.658;23.374;2023-02-21T13:32:57;3.67;;;1.70;;
27957;SDS011;15295;42.658;23.374;2023-02-21T13:35:29;4.20;;;1.60;;
27957;SDS011;15295;42.658;23.374;2023-02-21T13:38:01;2.75;;;1.50;;
27957;SDS011;15295;42.658;23.374;2023-02-21T13:54:21;4.68;;;2.00;;
27957;SDS011;15295;42.658;23.374;2023-02-21T14:02:19;5.20;;;2.17;;
27957;SDS011;15295;42.658;23.374;2023-02-21T14:07:44;9.95;;;6.43;;
27957;SDS011;15295;42.658;23.374;2023-02-21T14:10:14;9.23;;;4.15;;
27957;SDS011;15295;42.658;23.374;2023-02-21T14:12:50;9.53;;;2.60;;
27957;SDS011;15295;42.658;23.374;2023-02-21T14:15:19;8.68;;;3.67;;
27957;SDS011;15295;42.658;23.374;2023-02-21T14:17:46;4.47;;;2.35;;
27957;SDS011;15295;42.658;23.374;2023-02-21T14:20:15;8.80;;;3.25;;
27957;SDS011;15295;42.658;23.374;2023-02-21T14:22:43;5.10;;;2.53;;
27957;SDS011;15295;42.658;23.374;2023-02-21T14:27:55;12.90;;;7.18;;
27957;SDS011;15295;42.658;23.374;2023-02-21T14:30:30;16.42;;;11.20;;
27957;SDS011;15295;42.658;23.374;2023-02-21T14:33:09;9.55;;;5.47;;
27957;SDS011;15295;42.658;23.374;2023-02-21T14:35:55;10.80;;;4.53;;
27957;SDS011;15295;42.658;23.374;2023-02-21T14:38:27;8.05;;;3.63;;
27957;SDS011;15295;42.658;23.374;2023-02-21T15:05:58;10.65;;;4.10;;
27957;SDS011;15295;42.658;23.374;2023-02-21T15:08:29;4.93;;;2.83;;
27957;SDS011;15295;42.658;23.374;2023-02-21T15:11:11;8.90;;;2.85;;
27957;SDS011;15295;42.658;23.374;2023-02-21T15:13:42;4.45;;;2.55;;
27957;SDS011;15295;42.658;23.374;2023-02-21T15:16:09;3.92;;;2.15;;
27957;SDS011;15295;42.658;23.374;2023-02-21T15:18:38;11.75;;;2.63;;
27957;SDS011;15295;42.658;23.374;2023-02-21T15:21:24;13.07;;;4.25;;
27957;SDS011;15295;42.658;23.374;2023-02-21T15:24:10;5.05;;;2.67;;
27957;SDS011;15295;42.658;23.374;2023-02-21T15:26:38;8.00;;;2.75;;
27957;SDS011;15295;42.658;23.374;2023-02-21T15:29:08;5.53;;;3.72;;
27957;SDS011;15295;42.658;23.374;2023-02-21T15:31:47;13.60;;;6.88;;
27957;SDS011;15295;42.658;23.374;2023-02-21T15:34:27;11.38;;;5.80;;
27957;SDS011;15295;42.658;23.374;2023-02-21T15:37:02;17.27;;;4.80;;
27957;SDS011;15295;42.658;23.374;2023-02-21T15:39:33;15.70;;;9.02;;
27957;SDS011;15295;42.658;23.374;2023-02-21T15:42:03;12.48;;;5.57;;
27957;SDS011;15295;42.658;23.374;2023-02-21T15:44:31;28.58;;;19.13;;
27957;SDS011;15295;42.658;23.374;2023-02-21T15:47:06;29.15;;;18.00;;
27957;SDS011;15295;42.658;23.374;2023-02-21T15:49:46;14.40;;;5.50;;
27957;SDS011;15295;42.658;23.374;2023-02-21T15:55:15;9.70;;;4.50;;
27957;SDS011;15295;42.658;23.374;2023-02-21T15:58:00;7.93;;;3.58;;
27957;SDS011;15295;42.658;23.374;2023-02-21T16:00:30;12.00;;;4.57;;
27957;SDS011;15295;42.658;23.374;2023-02-21T16:11:53;12.10;;;7.13;;
27957;SDS011;15295;42.658;23.374;2023-02-21T16:14:55;11.90;;;6.22;;
27957;SDS011;15295;42.658;23.374;2023-02-21T16:19:59;8.50;;;4.55;;
27957;SDS011;15295;42.658;23.374;2023-02-21T16:22:38;10.73;;;5.55;;
27957;SDS011;15295;42.658;23.374;2023-02-21T16:25:17;10.05;;;5.07;;
27957;SDS011;15295;42.658;23.374;2023-02-21T16:27:51;13.95;;;5.13;;
27957;SDS011;15295;42.658;23.374;2023-02-21T16:30:26;9.93;;;4.15;;
27957;SDS011;15295;42.658;23.374;2023-02-21T16:32:58;13.25;;;4.28;;
27957;SDS011;15295;42.658;23.374;2023-02-21T16:35:28;21.45;;;11.00;;
27957;SDS011;15295;42.658;23.374;2023-02-21T16:37:56;19.45;;;8.57;;
27957;SDS011;15295;42.658;23.374;2023-02-21T16:43:23;22.98;;;7.70;;
27957;SDS011;15295;42.658;23.374;2023-02-21T16:45:53;27.65;;;12.98;;
27957;SDS011;15295;42.658;23.374;2023-02-21T16:48:32;22.90;;;11.32;;
27957;SDS011;15295;42.658;23.374;2023-02-21T16:51:11;17.88;;;7.07;;
27957;SDS011;15295;42.658;23.374;2023-02-21T16:53:40;23.77;;;8.43;;
27957;SDS011;15295;42.658;23.374;2023-02-21T16:56:06;18.52;;;6.85;;
27957;SDS011;15295;42.658;23.374;2023-02-21T16:58:38;11.80;;;4.72;;
27957;SDS011;15295;42.658;23.374;2023-02-21T17:01:11;11.52;;;5.53;;
27957;SDS011;15295;42.658;23.374;2023-02-21T17:03:40;17.10;;;7.50;;
27957;SDS011;15295;42.658;23.374;2023-02-21T17:06:09;17.50;;;7.60;;
27957;SDS011;15295;42.658;23.374;2023-02-21T17:08:41;16.95;;;6.72;;
27957;SDS011;15295;42.658;23.374;2023-02-21T17:11:06;16.20;;;5.97;;
27957;SDS011;15295;42.658;23.374;2023-02-21T17:13:33;13.90;;;4.28;;
27957;SDS011;15295;42.658;23.374;2023-02-21T17:16:00;44.50;;;24.92;;
27957;SDS011;15295;42.658;23.374;2023-02-21T17:18:26;29.02;;;15.98;;
27957;SDS011;15295;42.658;23.374;2023-02-21T17:20:53;31.73;;;17.08;;
27957;SDS011;15295;42.658;23.374;2023-02-21T17:23:23;26.55;;;13.13;;
27957;SDS011;15295;42.658;23.374;2023-02-21T17:25:48;18.83;;;8.13;;
27957;SDS011;15295;42.658;23.374;2023-02-21T17:28:14;24.85;;;9.40;;
27957;SDS011;15295;42.658;23.374;2023-02-21T17:30:42;25.02;;;10.90;;
27957;SDS011;15295;42.658;23.374;2023-02-21T17:33:08;24.90;;;11.73;;
27957;SDS011;15295;42.658;23.374;2023-02-21T17:35:35;27.23;;;14.63;;
27957;SDS011;15295;42.658;23.374;2023-02-21T17:38:01;18.40;;;9.10;;
27957;SDS011;15295;42.658;23.374;2023-02-21T17:40:27;19.00;;;6.97;;
27957;SDS011;15295;42.658;23.374;2023-02-21T17:42:54;16.23;;;6.47;;
27957;SDS011;15295;42.658;23.374;2023-02-21T17:45:21;20.60;;;9.88;;
27957;SDS011;15295;42.658;23.374;2023-02-21T17:47:47;27.63;;;11.32;;
27957;SDS011;15295;42.658;23.374;2023-02-21T17:50:12;30.50;;;10.82;;
27957;SDS011;15295;42.658;23.374;2023-02-21T17:52:38;26.83;;;11.70;;
27957;SDS011;15295;42.658;23.374;2023-02-21T17:55:04;31.80;;;12.13;;
27957;SDS011;15295;42.658;23.374;2023-02-21T17:57:34;23.88;;;11.55;;
27957;SDS011;15295;42.658;23.374;2023-02-21T18:00:25;21.35;;;10.00;;
27957;SDS011;15295;42.658;23.374;2023-02-21T18:02:50;25.08;;;10.27;;
27957;SDS011;15295;42.658;23.374;2023-02-21T18:05:17;21.95;;;8.35;;
27957;SDS011;15295;42.658;23.374;2023-02-21T18:07:47;18.38;;;8.77;;
27957;SDS011;15295;42.658;23.374;2023-02-21T18:10:15;22.88;;;9.57;;
27957;SDS011;15295;42.658;23.374;2023-02-21T18:12:40;20.35;;;8.45;;
27957;SDS011;15295;42.658;23.374;2023-02-21T18:15:06;21.60;;;8.77;;
27957;SDS011;15295;42.658;23.374;2023-02-21T18:17:34;22.15;;;8.32;;
27957;SDS011;15295;42.658;23.374;2023-02-21T18:19:59;21.38;;;9.00;;
27957;SDS011;15295;42.658;23.374;2023-02-21T18:22:25;21.73;;;8.27;;
27957;SDS011;15295;42.658;23.374;2023-02-21T18:24:52;22.23;;;9.02;;
27957;SDS011;15295;42.658;23.374;2023-02-21T18:27:18;22.25;;;9.35;;
27957;SDS011;15295;42.658;23.374;2023-02-21T18:29:46;28.02;;;10.65;;
27957;SDS011;15295;42.658;23.374;2023-02-21T18:32:11;33.53;;;15.48;;
27957;SDS011;15295;42.658;23.374;2023-02-21T18:34:37;32.38;;;12.02;;
27957;SDS011;15295;42.658;23.374;2023-02-21T18:37:02;26.17;;;11.15;;
27957;SDS011;15295;42.658;23.374;2023-02-21T18:39:29;30.30;;;12.05;;
27957;SDS011;15295;42.658;23.374;2023-02-21T18:41:56;23.98;;;11.25;;
27957;SDS011;15295;42.658;23.374;2023-02-21T18:44:21;30.33;;;12.15;;
27957;SDS011;15295;42.658;23.374;2023-02-21T18:46:50;32.47;;;11.88;;
27957;SDS011;15295;42.658;23.374;2023-02-21T18:49:19;25.15;;;10.80;;
27957;SDS011;15295;42.658;23.374;2023-02-21T18:51:45;25.80;;;11.90;;
27957;SDS011;15295;42.658;23.374;2023-02-21T18:54:10;28.13;;;12.85;;
27957;SDS011;15295;42.658;23.374;2023-02-21T18:56:36;30.85;;;12.75;;
27957;SDS011;15295;42.658;23.374;2023-02-21T18:59:01;21.27;;;10.43;;